Kuujjuaq, Canada
Current Conditions -  °F | °C
As of 12:26 AM on Wednesday 26 Nov 2014 (Local Time) from CYVP Reporting Station
Scattered Clouds Scattered Clouds  
Wind Chill: -5°   Ceiling: Unl
Heat Index: 10°   Visibility: 15mi
Dew Point:   Wind: 13mph
Humidity: 73%   Direction: 310°NW
Pressure: 29.65"   Gusts: NA
Location:  58.22°N, 68.37°W
Report Text: CYVP 260526Z 31011KT 15SM SCT040 M12/M16 A2965 RMK SC4 SLP044
Loading
Personal Weather Stations






























Interactive Weather Map New forecast layout! Learn more

10-Day Weather Forecast

Advertisements
Track Severe Weather on mobile